Time;durP1;ratioP1;P1;durP2;ratioP2;P2;SDS_P1;SDS_P2;PMS_P1;PMS_P2;Temp;Humidity;BMP_temperature;BMP_pressure;BME280_temperature;BME280_humidity;BME280_pressure;Samples;Min_cycle;Max_cycle;Signal;HPM_P1;HPM_P2
2021/01/18 00:00:58;;;;;;;34.78;22.75;;;;;;;;;;5072728;28;20720;-75
2021/01/18 00:03:24;;;;;;;40.63;25.13;;;;;;;;;;5084518;28;20183;-73
2021/01/18 00:05:50;;;;;;;37.65;23.23;;;;;;;;;;5075637;28;20559;-75
2021/01/18 00:08:16;;;;;;;41.20;23.42;;;;;;;;;;5085174;28;20198;-74
2021/01/18 00:10:42;;;;;;;38.10;23.55;;;;;;;;;;5082156;28;20179;-74
2021/01/18 00:13:08;;;;;;;41.67;24.23;;;;;;;;;;5091570;28;20213;-75
2021/01/18 00:15:34;;;;;;;38.60;23.52;;;;;;;;;;5091850;28;20232;-73
2021/01/18 00:18:00;;;;;;;41.30;24.48;;;;;;;;;;5084685;28;20223;-73
2021/01/18 00:20:26;;;;;;;38.50;24.45;;;;;;;;;;5072849;28;20188;-75
2021/01/18 00:22:52;;;;;;;41.13;23.65;;;;;;;;;;5091516;28;20195;-74
2021/01/18 00:25:25;;;;;;;42.08;24.85;;;;;;;;;;5077101;28;20184;-75
2021/01/18 00:27:51;;;;;;;39.42;24.02;;;;;;;;;;5087220;28;20207;-72
2021/01/18 00:30:19;;;;;;;39.53;24.67;;;;;;;;;;5087192;28;20202;-75
2021/01/18 00:32:45;;;;;;;38.95;24.92;;;;;;;;;;5082703;28;20652;-75
2021/01/18 00:35:12;;;;;;;43.33;24.90;;;;;;;;;;5078413;28;20203;-75
2021/01/18 00:37:45;;;;;;;44.78;26.15;;;;;;;;;;5083539;28;20184;-75
2021/01/18 00:40:12;;;;;;;42.28;25.00;;;;;;;;;;5088273;28;20237;-73
2021/01/18 00:42:41;;;;;;;44.00;25.98;;;;;;;;;;5091118;28;20706;-75
2021/01/18 00:45:08;;;;;;;45.17;25.42;;;;;;;;;;5090873;28;20186;-74
2021/01/18 00:47:44;;;;;;;44.15;24.73;;;;;;;;;;5080181;28;20212;-75
2021/01/18 00:50:11;;;;;;;46.78;27.08;;;;;;;;;;5082181;28;20211;-74
2021/01/18 00:52:39;;;;;;;46.40;25.92;;;;;;;;;;5078481;28;20553;-71
2021/01/18 00:55:05;;;;;;;42.20;26.95;;;;;;;;;;5085229;28;20241;-72
2021/01/18 00:57:33;;;;;;;46.60;26.17;;;;;;;;;;5091014;28;20191;-73
2021/01/18 00:59:59;;;;;;;47.00;26.13;;;;;;;;;;5085004;28;20188;-74
2021/01/18 01:02:25;;;;;;;48.50;27.70;;;;;;;;;;5087658;28;20286;-71
2021/01/18 01:04:51;;;;;;;54.67;28.23;;;;;;;;;;5085364;28;20206;-73
2021/01/18 01:07:17;;;;;;;45.95;25.33;;;;;;;;;;5078987;28;20211;-73
2021/01/18 01:09:43;;;;;;;44.50;26.38;;;;;;;;;;5082110;28;20183;-74
2021/01/18 01:12:09;;;;;;;48.88;27.92;;;;;;;;;;5071552;28;20279;-73
2021/01/18 01:14:35;;;;;;;47.58;27.52;;;;;;;;;;5073914;28;20176;-72
2021/01/18 01:17:01;;;;;;;47.85;27.45;;;;;;;;;;5079451;28;20186;-73
2021/01/18 01:19:27;;;;;;;48.78;26.77;;;;;;;;;;5087975;28;20188;-73
2021/01/18 01:21:53;;;;;;;49.22;26.77;;;;;;;;;;5090983;28;20199;-73
2021/01/18 01:24:20;;;;;;;43.28;25.52;;;;;;;;;;5086083;28;20188;-73
2021/01/18 01:26:46;;;;;;;50.85;27.15;;;;;;;;;;5089033;28;20242;-73
2021/01/18 01:29:12;;;;;;;50.10;26.27;;;;;;;;;;5090251;28;20183;-73
2021/01/18 01:31:39;;;;;;;48.13;26.20;;;;;;;;;;5079071;28;20226;-73
2021/01/18 01:34:05;;;;;;;50.80;27.17;;;;;;;;;;5083116;28;20182;-75
2021/01/18 01:36:31;;;;;;;53.03;31.23;;;;;;;;;;5088182;28;20278;-73
2021/01/18 01:38:57;;;;;;;50.80;29.17;;;;;;;;;;5079843;28;20530;-75
2021/01/18 01:41:23;;;;;;;53.78;29.45;;;;;;;;;;5083118;28;20237;-72
2021/01/18 01:43:49;;;;;;;48.88;26.75;;;;;;;;;;5083775;28;20191;-73
2021/01/18 01:46:16;;;;;;;49.08;27.50;;;;;;;;;;5069912;28;20200;-74
2021/01/18 01:48:42;;;;;;;49.20;28.17;;;;;;;;;;5083484;28;20187;-74
2021/01/18 01:51:08;;;;;;;46.17;26.60;;;;;;;;;;5078119;28;20232;-74
2021/01/18 01:53:35;;;;;;;50.03;28.45;;;;;;;;;;5081942;28;20180;-72
2021/01/18 01:56:01;;;;;;;46.08;26.48;;;;;;;;;;5078243;28;20182;-74
2021/01/18 01:58:28;;;;;;;46.97;27.95;;;;;;;;;;5094228;28;20176;-71
2021/01/18 02:00:55;;;;;;;51.25;27.20;;;;;;;;;;5093723;28;20179;-74
2021/01/18 02:03:25;;;;;;;49.00;29.27;;;;;;;;;;5094213;28;20179;-72
2021/01/18 02:05:53;;;;;;;51.22;28.80;;;;;;;;;;5084881;28;20529;-73
2021/01/18 02:08:20;;;;;;;47.35;26.23;;;;;;;;;;5088973;28;20172;-74
2021/01/18 02:10:46;;;;;;;46.15;25.50;;;;;;;;;;5094075;28;20687;-74
2021/01/18 02:13:26;;;;;;;47.65;27.35;;;;;;;;;;5083033;28;20205;-72
2021/01/18 02:16:04;;;;;;;46.70;28.30;;;;;;;;;;5082100;28;20183;-74
2021/01/18 02:18:43;;;;;;;54.15;29.83;;;;;;;;;;5088158;28;20536;-73
2021/01/18 02:21:27;;;;;;;51.47;28.83;;;;;;;;;;5091528;28;20205;-72
2021/01/18 02:24:12;;;;;;;52.53;27.77;;;;;;;;;;5079873;28;20198;-74
2021/01/18 02:27:04;;;;;;;54.50;28.40;;;;;;;;;;5093352;28;20249;-74
2021/01/18 02:29:30;;;;;;;52.08;28.98;;;;;;;;;;5092678;28;20184;-72
2021/01/18 02:32:07;;;;;;;64.72;30.85;;;;;;;;;;5091961;28;20724;-76
2021/01/18 02:35:02;;;;;;;54.67;28.70;;;;;;;;;;5088062;28;20187;-73
2021/01/18 02:37:28;;;;;;;52.45;29.13;;;;;;;;;;5080775;28;20195;-74
2021/01/18 02:40:17;;;;;;;56.70;28.80;;;;;;;;;;5090861;28;20178;-72
2021/01/18 02:42:48;;;;;;;54.75;29.15;;;;;;;;;;5073266;28;20430;-74
2021/01/18 02:45:16;;;;;;;52.75;29.30;;;;;;;;;;5088881;28;20532;-73
2021/01/18 02:47:44;;;;;;;59.22;29.58;;;;;;;;;;5091831;28;20691;-75
2021/01/18 02:50:10;;;;;;;60.65;29.65;;;;;;;;;;5092024;28;20190;-73
2021/01/18 02:52:39;;;;;;;56.95;30.00;;;;;;;;;;5093201;28;20220;-71
2021/01/18 02:55:07;;;;;;;60.00;28.90;;;;;;;;;;5092406;28;20693;-73
2021/01/18 02:57:35;;;;;;;57.80;28.95;;;;;;;;;;5091687;28;20197;-73
2021/01/18 03:00:05;;;;;;;57.70;28.80;;;;;;;;;;5091548;28;20176;-75
2021/01/18 03:02:42;;;;;;;70.82;30.52;;;;;;;;;;5089708;28;20202;-74
2021/01/18 03:05:08;;;;;;;63.90;30.45;;;;;;;;;;5093193;28;20220;-74
2021/01/18 03:07:45;;;;;;;55.80;30.90;;;;;;;;;;5092241;28;20215;-75
2021/01/18 03:10:20;;;;;;;60.50;30.80;;;;;;;;;;5088878;28;20471;-75
2021/01/18 03:12:49;;;;;;;56.50;30.75;;;;;;;;;;5075418;28;20203;-74
2021/01/18 03:15:16;;;;;;;61.38;29.60;;;;;;;;;;5082459;28;20699;-73
2021/01/18 03:17:44;;;;;;;55.95;28.50;;;;;;;;;;5086887;28;20210;-75
2021/01/18 03:20:10;;;;;;;58.67;29.27;;;;;;;;;;5091751;28;20167;-73
2021/01/18 03:22:37;;;;;;;56.67;28.75;;;;;;;;;;5088469;28;20200;-74
2021/01/18 03:25:04;;;;;;;62.92;29.67;;;;;;;;;;5094346;28;20578;-74
2021/01/18 03:27:44;;;;;;;61.00;29.00;;;;;;;;;;5096309;28;20211;-72
2021/01/18 03:30:10;;;;;;;62.40;28.77;;;;;;;;;;5094552;28;20175;-73
2021/01/18 03:32:36;;;;;;;59.63;28.52;;;;;;;;;;5096337;28;20278;-75
2021/01/18 03:35:02;;;;;;;55.42;27.92;;;;;;;;;;5083426;28;20206;-72
2021/01/18 03:37:28;;;;;;;58.25;29.17;;;;;;;;;;5096276;28;20182;-72
2021/01/18 03:39:54;;;;;;;56.78;30.40;;;;;;;;;;5084441;28;20175;-73
2021/01/18 03:42:20;;;;;;;60.42;27.40;;;;;;;;;;5096462;28;20195;-75
2021/01/18 03:44:46;;;;;;;58.38;28.00;;;;;;;;;;5080540;28;20179;-72
2021/01/18 03:47:12;;;;;;;56.88;26.90;;;;;;;;;;5085920;28;20227;-73
2021/01/18 03:49:38;;;;;;;64.25;28.73;;;;;;;;;;5081218;28;20176;-73
2021/01/18 03:52:04;;;;;;;56.25;27.90;;;;;;;;;;5086797;28;20200;-74
2021/01/18 03:54:30;;;;;;;66.68;27.13;;;;;;;;;;5091607;28;20178;-75
2021/01/18 03:56:56;;;;;;;67.20;27.58;;;;;;;;;;5094457;28;20183;-74
2021/01/18 03:59:22;;;;;;;64.75;29.98;;;;;;;;;;5095809;28;20176;-74
2021/01/18 04:01:48;;;;;;;60.47;28.48;;;;;;;;;;5089327;28;20200;-74
2021/01/18 04:04:14;;;;;;;72.80;30.23;;;;;;;;;;5088225;28;20179;-74
2021/01/18 04:06:40;;;;;;;63.17;26.40;;;;;;;;;;5095617;28;20203;-73
2021/01/18 04:09:06;;;;;;;52.60;24.42;;;;;;;;;;5095196;28;20187;-75
2021/01/18 04:11:32;;;;;;;57.53;25.75;;;;;;;;;;5089797;28;20226;-74
2021/01/18 04:13:59;;;;;;;50.88;23.58;;;;;;;;;;5091343;28;20198;-74
2021/01/18 04:16:24;;;;;;;46.33;22.70;;;;;;;;;;5095799;28;20167;-75
2021/01/18 04:18:51;;;;;;;53.22;23.60;;;;;;;;;;5095042;28;20179;-74
2021/01/18 04:21:17;;;;;;;67.78;22.80;;;;;;;;;;5087165;28;20275;-74
2021/01/18 04:23:44;;;;;;;49.10;22.95;;;;;;;;;;5075421;28;20180;-72
2021/01/18 04:26:10;;;;;;;68.10;23.70;;;;;;;;;;5085736;28;20683;-75
2021/01/18 04:28:37;;;;;;;47.97;22.83;;;;;;;;;;5095507;28;20187;-74
2021/01/18 04:31:03;;;;;;;68.63;23.58;;;;;;;;;;5094636;28;20550;-75
2021/01/18 04:33:29;;;;;;;67.72;21.33;;;;;;;;;;5095411;28;20210;-71
2021/01/18 04:35:56;;;;;;;49.85;22.85;;;;;;;;;;5088311;28;20172;-74
2021/01/18 04:38:22;;;;;;;46.50;24.02;;;;;;;;;;5082734;28;20172;-73
2021/01/18 04:40:48;;;;;;;52.00;23.65;;;;;;;;;;5095594;28;20172;-74
2021/01/18 04:43:14;;;;;;;49.05;20.85;;;;;;;;;;5095228;28;20518;-73
2021/01/18 04:45:41;;;;;;;57.38;22.17;;;;;;;;;;5093463;28;20266;-72
2021/01/18 04:48:07;;;;;;;48.95;21.20;;;;;;;;;;5094381;28;20583;-72
2021/01/18 04:50:33;;;;;;;48.88;20.35;;;;;;;;;;5078642;28;20206;-73
2021/01/18 04:53:08;;;;;;;42.88;19.65;;;;;;;;;;5095181;28;20214;-72
2021/01/18 04:55:43;;;;;;;46.97;19.65;;;;;;;;;;5091490;28;20254;-74
2021/01/18 04:58:13;;;;;;;45.63;19.65;;;;;;;;;;5092042;28;20271;-73
2021/01/18 05:00:40;;;;;;;40.67;19.45;;;;;;;;;;5084708;28;20695;-74
2021/01/18 05:03:07;;;;;;;48.55;19.92;;;;;;;;;;5094465;28;20183;-73
2021/01/18 05:05:52;;;;;;;48.70;21.98;;;;;;;;;;5094672;28;20211;-72
2021/01/18 05:08:21;;;;;;;63.92;20.42;;;;;;;;;;5084956;28;20662;-76
2021/01/18 05:10:49;;;;;;;45.13;19.85;;;;;;;;;;5095172;28;20167;-74
2021/01/18 05:13:19;;;;;;;42.60;21.95;;;;;;;;;;5087864;28;20200;-73
2021/01/18 05:15:48;;;;;;;60.65;20.67;;;;;;;;;;5091944;28;20176;-74
2021/01/18 05:18:15;;;;;;;54.55;21.50;;;;;;;;;;5094964;28;20172;-75
2021/01/18 05:20:41;;;;;;;44.65;20.70;;;;;;;;;;5097402;28;20179;-72
2021/01/18 05:23:10;;;;;;;50.40;21.40;;;;;;;;;;5096730;28;20199;-72
2021/01/18 05:25:36;;;;;;;44.75;21.90;;;;;;;;;;5092851;28;20187;-72
2021/01/18 05:28:05;;;;;;;47.20;22.00;;;;;;;;;;5087233;28;20204;-72
2021/01/18 05:30:35;;;;;;;53.65;19.55;;;;;;;;;;5094090;28;20186;-73
2021/01/18 05:33:15;;;;;;;45.70;20.02;;;;;;;;;;5083515;28;20207;-71
2021/01/18 05:35:41;;;;;;;50.42;22.52;;;;;;;;;;5093820;28;20171;-72
2021/01/18 05:38:11;;;;;;;41.25;18.40;;;;;;;;;;5094380;28;20176;-75
2021/01/18 05:40:58;;;;;;;45.65;19.85;;;;;;;;;;5080304;28;20176;-74
2021/01/18 05:43:32;;;;;;;42.65;17.33;;;;;;;;;;5090259;28;20183;-73
2021/01/18 05:46:03;;;;;;;41.35;17.75;;;;;;;;;;5093606;28;20178;-74
2021/01/18 05:48:29;;;;;;;37.58;16.58;;;;;;;;;;5087147;28;20180;-74
2021/01/18 05:50:59;;;;;;;42.30;17.80;;;;;;;;;;5086594;28;20185;-73
2021/01/18 05:53:29;;;;;;;44.78;18.15;;;;;;;;;;5080449;28;20190;-74
2021/01/18 05:55:55;;;;;;;40.50;17.15;;;;;;;;;;5092340;28;20234;-75
2021/01/18 05:58:31;;;;;;;43.47;18.63;;;;;;;;;;5086957;28;20626;-75
2021/01/18 06:00:58;;;;;;;43.33;17.83;;;;;;;;;;5086982;28;20172;-73
2021/01/18 06:03:31;;;;;;;34.75;17.02;;;;;;;;;;5087586;28;20242;-74
2021/01/18 06:05:58;;;;;;;43.03;17.15;;;;;;;;;;5087644;28;20237;-75
2021/01/18 06:08:24;;;;;;;35.20;16.90;;;;;;;;;;5091000;28;20712;-75
2021/01/18 06:10:51;;;;;;;33.25;15.68;;;;;;;;;;5107722;28;20163;-73
2021/01/18 06:13:18;;;;;;;32.58;15.93;;;;;;;;;;5093751;28;20191;-74
2021/01/18 06:15:44;;;;;;;43.33;15.93;;;;;;;;;;5086518;28;20179;-75
2021/01/18 06:18:13;;;;;;;34.85;15.57;;;;;;;;;;5093392;28;20179;-74
2021/01/18 06:20:39;;;;;;;35.10;15.55;;;;;;;;;;5077052;28;20187;-72
2021/01/18 06:23:05;;;;;;;31.15;16.25;;;;;;;;;;5083053;28;20199;-74
2021/01/18 06:25:38;;;;;;;31.85;15.00;;;;;;;;;;5092926;28;20238;-73
2021/01/18 06:28:24;;;;;;;32.20;14.52;;;;;;;;;;5084477;28;20195;-74
2021/01/18 06:31:01;;;;;;;33.17;15.00;;;;;;;;;;5077244;28;20620;-74
2021/01/18 06:33:42;;;;;;;31.55;14.93;;;;;;;;;;5093499;28;20509;-72
2021/01/18 06:36:13;;;;;;;36.38;14.77;;;;;;;;;;5093320;28;20552;-74
2021/01/18 06:38:39;;;;;;;36.88;14.70;;;;;;;;;;5092907;28;20202;-73
2021/01/18 06:41:06;;;;;;;31.65;13.35;;;;;;;;;;5092935;28;20175;-72
2021/01/18 06:43:32;;;;;;;31.00;14.55;;;;;;;;;;5091937;28;20179;-74
2021/01/18 06:45:58;;;;;;;34.45;15.13;;;;;;;;;;5091154;28;20184;-76
2021/01/18 06:48:24;;;;;;;30.77;13.15;;;;;;;;;;5076927;28;20510;-75
2021/01/18 06:50:51;;;;;;;39.85;13.25;;;;;;;;;;5092879;28;20178;-75
2021/01/18 06:53:18;;;;;;;30.25;13.25;;;;;;;;;;5088267;28;20201;-73
2021/01/18 06:55:53;;;;;;;34.15;12.60;;;;;;;;;;5092844;28;20175;-73
2021/01/18 06:58:32;;;;;;;31.58;13.23;;;;;;;;;;5080279;28;20171;-72
2021/01/18 07:00:59;;;;;;;31.67;13.60;;;;;;;;;;5095052;28;20171;-75
2021/01/18 07:03:34;;;;;;;50.80;15.32;;;;;;;;;;5088190;28;20176;-72
2021/01/18 07:06:03;;;;;;;38.30;15.63;;;;;;;;;;5085181;28;20230;-74
2021/01/18 07:08:32;;;;;;;48.42;15.90;;;;;;;;;;5081009;28;20258;-75
2021/01/18 07:11:06;;;;;;;31.35;14.95;;;;;;;;;;5099704;28;20514;-73
2021/01/18 07:13:32;;;;;;;41.40;16.58;;;;;;;;;;5084460;28;20183;-73
2021/01/18 07:16:02;;;;;;;43.80;16.10;;;;;;;;;;5085885;28;20559;-72
2021/01/18 07:18:32;;;;;;;43.45;14.02;;;;;;;;;;5096262;28;20213;-72
2021/01/18 07:21:02;;;;;;;44.38;14.15;;;;;;;;;;5090428;28;20180;-73
2021/01/18 07:23:29;;;;;;;43.45;13.65;;;;;;;;;;5078376;28;20260;-72
2021/01/18 07:26:04;;;;;;;38.70;13.57;;;;;;;;;;5096262;28;20225;-75
2021/01/18 07:28:33;;;;;;;32.55;13.60;;;;;;;;;;5097629;28;20171;-73
2021/01/18 07:30:59;;;;;;;35.88;13.25;;;;;;;;;;5095921;28;20252;-74
2021/01/18 07:33:25;;;;;;;35.92;13.40;;;;;;;;;;5095883;28;20187;-72
2021/01/18 07:35:51;;;;;;;38.92;14.13;;;;;;;;;;5087416;28;20213;-75
2021/01/18 07:38:20;;;;;;;37.22;13.93;;;;;;;;;;5093043;28;20640;-75
2021/01/18 07:41:05;;;;;;;35.38;13.55;;;;;;;;;;5096206;28;20644;-73
2021/01/18 07:43:34;;;;;;;34.72;12.98;;;;;;;;;;5081558;28;20255;-76
2021/01/18 07:46:18;;;;;;;33.80;12.65;;;;;;;;;;5077713;28;20172;-74
2021/01/18 07:48:44;;;;;;;35.22;12.65;;;;;;;;;;5084815;28;20570;-74
2021/01/18 07:51:19;;;;;;;35.20;12.63;;;;;;;;;;5088855;28;20209;-75
2021/01/18 07:53:46;;;;;;;44.15;13.40;;;;;;;;;;5091492;28;20249;-75
2021/01/18 07:56:12;;;;;;;27.58;13.23;;;;;;;;;;5089173;28;20209;-76
2021/01/18 07:58:43;;;;;;;37.47;12.70;;;;;;;;;;5092005;28;20233;-73
2021/01/18 08:01:12;;;;;;;31.33;13.18;;;;;;;;;;5091115;28;20176;-76
2021/01/18 08:03:38;;;;;;;39.28;13.60;;;;;;;;;;5080567;28;20190;-74
2021/01/18 08:06:05;;;;;;;25.95;12.85;;;;;;;;;;5086934;28;20195;-75
2021/01/18 08:08:31;;;;;;;25.88;13.65;;;;;;;;;;5083740;28;20282;-73
2021/01/18 08:11:16;;;;;;;33.85;16.05;;;;;;;;;;5089579;28;20179;-72
2021/01/18 08:13:46;;;;;;;33.70;16.33;;;;;;;;;;5091504;28;20194;-75
2021/01/18 08:16:14;;;;;;;36.00;13.30;;;;;;;;;;5092165;28;20198;-75
2021/01/18 08:19:00;;;;;;;36.35;12.98;;;;;;;;;;5087450;28;20275;-74
2021/01/18 08:21:47;;;;;;;35.33;14.43;;;;;;;;;;5089856;28;20283;-73
2021/01/18 08:24:36;;;;;;;29.98;14.00;;;;;;;;;;5089309;28;20665;-73
2021/01/18 08:27:05;;;;;;;27.35;12.73;;;;;;;;;;5085191;28;20215;-73
2021/01/18 08:29:31;;;;;;;26.75;13.02;;;;;;;;;;5094745;28;20182;-72
2021/01/18 08:32:17;;;;;;;32.63;13.70;;;;;;;;;;5084864;28;20270;-76
2021/01/18 08:34:43;;;;;;;32.80;15.50;;;;;;;;;;5086625;28;20417;-75
2021/01/18 08:37:10;;;;;;;27.08;12.23;;;;;;;;;;5091976;28;20179;-74
2021/01/18 08:39:38;;;;;;;37.38;13.23;;;;;;;;;;5077357;28;20172;-73
2021/01/18 08:42:05;;;;;;;33.50;12.02;;;;;;;;;;5091358;28;20607;-73
2021/01/18 08:44:31;;;;;;;30.05;12.02;;;;;;;;;;5090161;28;20886;-74
2021/01/18 08:46:57;;;;;;;29.17;12.18;;;;;;;;;;5085578;28;20245;-74
2021/01/18 08:49:24;;;;;;;30.25;12.60;;;;;;;;;;5090406;28;20188;-73
2021/01/18 08:51:50;;;;;;;28.60;12.45;;;;;;;;;;5080412;28;20196;-74
2021/01/18 08:54:33;;;;;;;24.55;12.50;;;;;;;;;;5080328;28;20176;-74
2021/01/18 08:57:18;;;;;;;34.00;12.85;;;;;;;;;;5087541;28;20586;-75
2021/01/18 08:59:45;;;;;;;34.17;13.43;;;;;;;;;;5081246;28;20191;-73
2021/01/18 09:02:17;;;;;;;29.48;13.73;;;;;;;;;;5089052;28;20219;-75
2021/01/18 09:04:43;;;;;;;30.75;13.43;;;;;;;;;;5092610;28;20191;-73
2021/01/18 09:07:14;;;;;;;32.45;14.88;;;;;;;;;;5091636;28;20282;-76
2021/01/18 09:09:40;;;;;;;50.58;15.18;;;;;;;;;;5078658;28;20172;-75
2021/01/18 09:12:10;;;;;;;48.33;15.60;;;;;;;;;;5087748;28;20684;-73
2021/01/18 09:14:36;;;;;;;34.92;15.25;;;;;;;;;;5090848;28;20613;-74
2021/01/18 09:17:06;;;;;;;45.78;16.88;;;;;;;;;;5089738;28;20288;-76
2021/01/18 09:19:32;;;;;;;40.53;16.30;;;;;;;;;;5091234;28;20190;-74
2021/01/18 09:22:00;;;;;;;42.75;16.83;;;;;;;;;;5082334;28;20338;-74
2021/01/18 09:24:26;;;;;;;48.95;17.00;;;;;;;;;;5070335;28;20259;-75
2021/01/18 09:26:53;;;;;;;40.75;17.63;;;;;;;;;;5086322;28;20213;-76
2021/01/18 09:29:22;;;;;;;54.58;19.13;;;;;;;;;;5091180;28;20176;-74
2021/01/18 09:31:49;;;;;;;56.75;18.70;;;;;;;;;;5093923;28;20286;-72
2021/01/18 09:34:15;;;;;;;49.35;18.00;;;;;;;;;;5091053;28;20190;-72
2021/01/18 09:36:43;;;;;;;44.33;17.63;;;;;;;;;;5089579;28;20193;-73
2021/01/18 09:39:21;;;;;;;51.85;19.85;;;;;;;;;;5089806;28;20207;-75
2021/01/18 09:41:47;;;;;;;50.65;19.00;;;;;;;;;;5090314;28;20537;-73
2021/01/18 09:44:13;;;;;;;53.85;17.90;;;;;;;;;;5075397;28;20188;-72
2021/01/18 09:46:42;;;;;;;62.58;21.05;;;;;;;;;;5083859;28;20202;-74
2021/01/18 09:49:08;;;;;;;54.70;18.60;;;;;;;;;;5083551;28;20575;-71
2021/01/18 09:51:34;;;;;;;51.13;19.98;;;;;;;;;;5090042;28;20198;-72
2021/01/18 09:54:00;;;;;;;45.85;19.30;;;;;;;;;;5089586;28;20186;-73
2021/01/18 09:56:27;;;;;;;53.95;19.52;;;;;;;;;;5082120;28;20189;-75
2021/01/18 09:58:58;;;;;;;46.55;19.42;;;;;;;;;;5089676;28;20202;-73
2021/01/18 10:01:26;;;;;;;45.67;18.92;;;;;;;;;;5090034;28;20220;-73
2021/01/18 10:03:53;;;;;;;42.67;17.60;;;;;;;;;;5089567;28;20398;-76
2021/01/18 10:06:27;;;;;;;44.20;19.95;;;;;;;;;;5072203;28;20282;-71
2021/01/18 10:08:54;;;;;;;47.97;18.85;;;;;;;;;;5084719;28;20225;-73
2021/01/18 10:11:28;;;;;;;42.72;20.05;;;;;;;;;;5084098;28;20696;-71
2021/01/18 10:14:01;;;;;;;57.00;20.63;;;;;;;;;;5070983;28;20176;-71
2021/01/18 10:16:27;;;;;;;41.05;18.33;;;;;;;;;;5069427;28;20776;-73
2021/01/18 10:18:53;;;;;;;44.55;18.95;;;;;;;;;;5083205;28;20202;-73
2021/01/18 10:21:19;;;;;;;42.47;19.05;;;;;;;;;;5082630;28;20262;-73
2021/01/18 10:23:48;;;;;;;35.20;16.00;;;;;;;;;;5082300;28;20262;-73
2021/01/18 10:26:16;;;;;;;42.65;18.42;;;;;;;;;;5078301;28;20583;-76
2021/01/18 10:28:49;;;;;;;35.28;17.23;;;;;;;;;;5077011;28;20187;-75
2021/01/18 10:31:22;;;;;;;36.88;16.23;;;;;;;;;;5080497;28;20188;-73
2021/01/18 10:34:07;;;;;;;38.45;16.73;;;;;;;;;;5085558;28;20175;-73
2021/01/18 10:36:34;;;;;;;37.67;17.50;;;;;;;;;;5088560;28;20214;-74
2021/01/18 10:39:00;;;;;;;32.83;16.00;;;;;;;;;;5087773;28;20266;-74
2021/01/18 10:41:26;;;;;;;28.75;15.35;;;;;;;;;;5082128;28;20588;-74
2021/01/18 10:43:52;;;;;;;30.08;15.60;;;;;;;;;;5088376;28;20548;-76
2021/01/18 10:46:18;;;;;;;34.10;16.13;;;;;;;;;;5081605;28;20328;-73
2021/01/18 10:48:54;;;;;;;35.35;18.08;;;;;;;;;;5089226;28;20236;-73
2021/01/18 10:51:24;;;;;;;31.15;15.77;;;;;;;;;;5081169;28;20206;-74
2021/01/18 10:53:55;;;;;;;32.72;15.52;;;;;;;;;;5079846;28;20202;-71
2021/01/18 10:56:21;;;;;;;27.27;15.63;;;;;;;;;;5089234;28;20179;-72
2021/01/18 10:58:56;;;;;;;30.08;16.00;;;;;;;;;;5088935;28;20179;-72
2021/01/18 11:01:22;;;;;;;30.17;15.45;;;;;;;;;;5079880;28;20533;-75
2021/01/18 11:03:48;;;;;;;27.02;14.45;;;;;;;;;;5088818;28;20493;-75
2021/01/18 11:06:15;;;;;;;30.00;15.98;;;;;;;;;;5087445;28;20214;-71
2021/01/18 11:08:42;;;;;;;31.35;17.60;;;;;;;;;;5091222;28;20179;-71
2021/01/18 11:11:25;;;;;;;32.92;17.20;;;;;;;;;;5079336;28;20206;-71
2021/01/18 11:14:01;;;;;;;37.15;17.70;;;;;;;;;;5085239;28;20167;-72
2021/01/18 11:16:27;;;;;;;26.60;14.43;;;;;;;;;;5084811;28;20205;-73
2021/01/18 11:19:04;;;;;;;25.52;15.05;;;;;;;;;;5074113;28;20256;-73
2021/01/18 11:21:30;;;;;;;29.70;16.98;;;;;;;;;;5087305;28;20221;-74
2021/01/18 11:23:56;;;;;;;34.63;16.98;;;;;;;;;;5087778;28;20179;-74
2021/01/18 11:26:23;;;;;;;29.80;16.50;;;;;;;;;;5088736;28;20230;-73
2021/01/18 11:28:49;;;;;;;29.55;16.42;;;;;;;;;;5087685;28;20182;-74
2021/01/18 11:31:16;;;;;;;35.08;19.33;;;;;;;;;;5080234;28;20208;-74
2021/01/18 11:33:43;;;;;;;32.42;17.35;;;;;;;;;;5083409;28;20179;-72
2021/01/18 11:36:10;;;;;;;35.83;18.48;;;;;;;;;;5082247;28;20176;-72
2021/01/18 11:38:36;;;;;;;34.03;17.85;;;;;;;;;;5080333;28;20205;-76
2021/01/18 11:41:02;;;;;;;34.95;19.42;;;;;;;;;;5069022;28;20176;-74
2021/01/18 11:43:28;;;;;;;35.90;19.60;;;;;;;;;;5084000;28;20186;-72
2021/01/18 11:45:54;;;;;;;35.17;18.55;;;;;;;;;;5090268;28;20190;-72
2021/01/18 11:48:20;;;;;;;36.05;20.50;;;;;;;;;;5088436;28;20208;-73
2021/01/18 11:50:47;;;;;;;39.00;20.23;;;;;;;;;;5084506;28;20270;-72
2021/01/18 11:53:17;;;;;;;44.78;21.15;;;;;;;;;;5091866;28;20195;-73
2021/01/18 11:55:43;;;;;;;38.80;19.08;;;;;;;;;;5092120;28;20195;-72
2021/01/18 11:58:09;;;;;;;43.90;19.65;;;;;;;;;;5088191;28;20207;-74
2021/01/18 12:00:35;;;;;;;39.38;21.77;;;;;;;;;;5072104;28;20195;-72
2021/01/18 12:03:01;;;;;;;41.08;19.95;;;;;;;;;;5081172;28;20195;-74
2021/01/18 12:05:28;;;;;;;37.35;20.17;;;;;;;;;;5086489;28;20179;-73
2021/01/18 12:07:55;;;;;;;41.67;21.85;;;;;;;;;;5084326;28;20214;-73
2021/01/18 12:10:21;;;;;;;45.78;22.80;;;;;;;;;;5088641;28;20206;-75
2021/01/18 12:12:47;;;;;;;42.80;21.25;;;;;;;;;;5075956;28;20208;-70
2021/01/18 12:15:13;;;;;;;48.17;23.40;;;;;;;;;;5073865;28;20184;-72
2021/01/18 12:17:40;;;;;;;43.05;23.05;;;;;;;;;;5082086;28;20184;-71
2021/01/18 12:20:07;;;;;;;49.13;24.85;;;;;;;;;;5083929;28;20205;-74
2021/01/18 12:22:33;;;;;;;44.97;22.52;;;;;;;;;;5091679;28;20214;-74
2021/01/18 12:24:59;;;;;;;60.97;25.80;;;;;;;;;;5086861;28;20220;-71
2021/01/18 12:27:25;;;;;;;45.00;22.98;;;;;;;;;;5075419;28;20212;-72
2021/01/18 12:29:51;;;;;;;50.80;24.45;;;;;;;;;;5088171;28;20172;-71
2021/01/18 12:32:18;;;;;;;41.78;23.67;;;;;;;;;;5088134;28;20203;-75
2021/01/18 12:34:44;;;;;;;50.05;25.90;;;;;;;;;;5090575;28;20175;-72
2021/01/18 12:37:10;;;;;;;45.85;24.27;;;;;;;;;;5074816;28;20180;-74
2021/01/18 12:39:36;;;;;;;48.17;24.20;;;;;;;;;;5084433;28;20184;-72
2021/01/18 12:42:03;;;;;;;51.47;26.00;;;;;;;;;;5075459;28;20227;-74
2021/01/18 12:44:29;;;;;;;60.15;25.38;;;;;;;;;;5081415;28;20187;-75
2021/01/18 12:47:01;;;;;;;52.42;23.20;;;;;;;;;;5091334;28;20245;-72
2021/01/18 12:49:28;;;;;;;45.20;23.65;;;;;;;;;;5089426;28;20171;-75
2021/01/18 12:51:54;;;;;;;44.33;24.48;;;;;;;;;;5090900;28;20191;-74
2021/01/18 12:54:20;;;;;;;44.65;24.77;;;;;;;;;;5090735;28;20180;-73
2021/01/18 12:56:46;;;;;;;43.10;22.55;;;;;;;;;;5075571;28;20637;-74
2021/01/18 12:59:12;;;;;;;45.85;24.50;;;;;;;;;;5070836;28;20176;-73
2021/01/18 13:01:39;;;;;;;53.38;23.85;;;;;;;;;;5070933;28;20671;-72
2021/01/18 13:04:05;;;;;;;50.25;23.40;;;;;;;;;;5070635;28;20704;-74
2021/01/18 13:06:32;;;;;;;47.63;24.95;;;;;;;;;;5070596;28;20251;-72
2021/01/18 13:08:59;;;;;;;53.42;26.35;;;;;;;;;;5092811;28;20652;-72
2021/01/18 13:11:25;;;;;;;35.78;19.73;;;;;;;;;;5077338;28;20208;-73
2021/01/18 13:13:51;;;;;;;46.78;23.52;;;;;;;;;;5090746;28;20175;-72
2021/01/18 13:16:18;;;;;;;44.03;23.75;;;;;;;;;;5090263;28;20540;-71
2021/01/18 13:18:45;;;;;;;44.40;24.00;;;;;;;;;;5090829;28;20528;-73
2021/01/18 13:21:15;;;;;;;44.78;22.60;;;;;;;;;;5090785;28;20536;-71
2021/01/18 13:23:42;;;;;;;45.00;23.40;;;;;;;;;;5090574;28;20171;-72
2021/01/18 13:26:08;;;;;;;41.47;21.63;;;;;;;;;;5090498;28;20171;-72
2021/01/18 13:28:35;;;;;;;41.47;22.90;;;;;;;;;;5087889;28;20248;-73
2021/01/18 13:31:01;;;;;;;40.67;21.83;;;;;;;;;;5090141;28;20202;-73
2021/01/18 13:33:27;;;;;;;40.58;22.15;;;;;;;;;;5090269;28;20183;-71
2021/01/18 13:35:53;;;;;;;43.10;22.27;;;;;;;;;;5088731;28;20648;-72
2021/01/18 13:38:19;;;;;;;39.95;21.08;;;;;;;;;;5070190;28;20262;-75
2021/01/18 13:40:45;;;;;;;39.08;22.45;;;;;;;;;;5082420;28;20206;-72
2021/01/18 13:43:11;;;;;;;40.60;21.50;;;;;;;;;;5090247;28;20240;-71
2021/01/18 13:45:37;;;;;;;39.88;23.40;;;;;;;;;;5084088;28;20194;-71
2021/01/18 13:48:03;;;;;;;38.10;22.25;;;;;;;;;;5089526;28;20283;-72
2021/01/18 13:50:29;;;;;;;39.45;21.30;;;;;;;;;;5088449;28;20518;-72
2021/01/18 13:52:55;;;;;;;33.85;21.10;;;;;;;;;;5075073;28;20501;-71
2021/01/18 13:55:22;;;;;;;36.72;23.75;;;;;;;;;;5074586;28;20180;-70
2021/01/18 13:57:48;;;;;;;40.72;22.13;;;;;;;;;;5077030;28;20182;-71
2021/01/18 14:00:14;;;;;;;35.42;20.42;;;;;;;;;;5076424;28;20179;-71
2021/01/18 14:02:40;;;;;;;33.85;20.65;;;;;;;;;;5089832;28;20207;-74
2021/01/18 14:05:07;;;;;;;42.40;22.20;;;;;;;;;;5076385;28;20624;-74
2021/01/18 14:07:33;;;;;;;32.65;19.65;;;;;;;;;;5081024;28;20247;-72
2021/01/18 14:10:00;;;;;;;34.25;22.38;;;;;;;;;;5100065;28;20178;-71
2021/01/18 14:12:26;;;;;;;43.47;20.08;;;;;;;;;;5078166;28;20198;-69
2021/01/18 14:14:52;;;;;;;33.28;21.08;;;;;;;;;;5086388;28;20187;-72
2021/01/18 14:17:23;;;;;;;29.70;19.63;;;;;;;;;;5078345;28;20219;-71
2021/01/18 14:19:49;;;;;;;31.67;18.50;;;;;;;;;;5089562;28;20596;-71
2021/01/18 14:22:15;;;;;;;30.67;17.00;;;;;;;;;;5089302;28;20284;-71
2021/01/18 14:24:41;;;;;;;29.92;17.83;;;;;;;;;;5088864;28;20194;-72